Time;durP1;ratioP1;P1;durP2;ratioP2;P2;SDS_P1;SDS_P2;PMS_P1;PMS_P2;Temp;Humidity;BMP_temperature;BMP_pressure;BME280_temperature;BME280_humidity;BME280_pressure;Samples;Min_cycle;Max_cycle;Signal;HPM_P1;HPM_P2
2023/02/11 00:00:44;;;;;;;;;;;5.20;98.70;;;;;;5099731;28;19924;-67
2023/02/11 00:03:10;;;;;;;;;;;5.30;99.00;;;;;;5095476;28;19967;-66
2023/02/11 00:05:35;;;;;;;;;;;5.40;97.80;;;;;;5111605;28;20446;-65
2023/02/11 00:08:01;;;;;;;;;;;5.40;97.60;;;;;;5092483;28;19908;-64
2023/02/11 00:10:26;;;;;;;;;;;5.50;96.90;;;;;;5079699;28;20033;-65
2023/02/11 00:12:52;;;;;;;;;;;5.60;96.70;;;;;;5081389;28;20286;-66
2023/02/11 00:15:18;;;;;;;;;;;5.60;96.50;;;;;;5081628;28;20273;-64
2023/02/11 00:17:43;;;;;;;;;;;5.60;96.20;;;;;;5080027;28;20390;-65
2023/02/11 00:20:09;;;;;;;;;;;5.70;96.10;;;;;;5080146;28;20359;-65
2023/02/11 00:22:34;;;;;;;;;;;5.80;95.80;;;;;;5076920;28;19942;-65
2023/02/11 00:25:00;;;;;;;;;;;5.90;95.80;;;;;;5079173;28;20372;-65
2023/02/11 00:27:26;;;;;;;;;;;5.90;95.70;;;;;;5064984;28;19968;-66
2023/02/11 00:29:52;;;;;;;;;;;6.00;95.60;;;;;;5063858;28;19912;-66
2023/02/11 00:32:17;;;;;;;;;;;6.00;95.40;;;;;;5078368;28;20010;-66
2023/02/11 00:34:43;;;;;;;;;;;6.00;95.30;;;;;;5080638;28;19920;-63
2023/02/11 00:37:09;;;;;;;;;;;6.00;95.60;;;;;;5080032;28;20032;-72
2023/02/11 00:39:35;;;;;;;;;;;5.90;95.50;;;;;;5080232;28;19916;-65
2023/02/11 00:42:01;;;;;;;;;;;5.80;95.50;;;;;;5081691;28;19916;-66
2023/02/11 00:44:26;;;;;;;;;;;5.90;95.50;;;;;;5078779;28;19916;-66
2023/02/11 00:46:52;;;;;;;;;;;5.90;95.50;;;;;;5076032;28;20343;-65
2023/02/11 00:49:18;;;;;;;;;;;5.90;95.40;;;;;;5078814;28;20381;-66
2023/02/11 00:51:43;;;;;;;;;;;5.90;95.30;;;;;;5077600;28;19999;-67
2023/02/11 00:54:09;;;;;;;;;;;5.90;95.30;;;;;;5078726;28;19912;-67
2023/02/11 00:56:35;;;;;;;;;;;5.90;95.40;;;;;;5079439;28;19959;-66
2023/02/11 00:59:00;;;;;;;;;;;5.90;95.40;;;;;;5075279;28;20054;-65
2023/02/11 01:01:26;;;;;;;;;;;5.90;95.30;;;;;;5077255;28;19927;-63
2023/02/11 01:03:52;;;;;;;;;;;5.90;95.50;;;;;;5075367;28;19934;-65
2023/02/11 01:09:02;;;;;;;;;;;5.90;95.30;;;;;;5082282;28;20000;-66
2023/02/11 01:11:27;;;;;;;;;;;5.90;95.50;;;;;;5084033;28;20048;-64
2023/02/11 01:13:53;;;;;;;;;;;5.80;95.60;;;;;;5084236;28;19919;-66
2023/02/11 01:16:19;;;;;;;;;;;5.80;95.60;;;;;;5084656;28;19920;-63
2023/02/11 01:18:54;;;;;;;;;;;5.70;95.70;;;;;;5084097;28;19920;-65
2023/02/11 01:21:19;;;;;;;;;;;5.70;96.00;;;;;;5083707;28;19959;-64
2023/02/11 01:23:45;;;;;;;;;;;5.70;95.90;;;;;;5084856;28;19990;-65
2023/02/11 01:26:11;;;;;;;;;;;5.70;95.80;;;;;;5085295;28;20386;-65
2023/02/11 01:28:36;;;;;;;;;;;5.70;95.70;;;;;;5086757;28;21838;-66
2023/02/11 01:31:02;;;;;;;;;;;5.70;95.70;;;;;;5080593;28;21664;-63
2023/02/11 01:33:28;;;;;;;;;;;5.70;95.70;;;;;;5082913;28;20320;-66
2023/02/11 01:35:54;;;;;;;;;;;5.70;95.80;;;;;;5084788;28;19913;-65
2023/02/11 01:38:24;;;;;;;;;;;5.70;95.90;;;;;;5102484;28;19908;-63
2023/02/11 01:40:55;;;;;;;;;;;5.70;96.00;;;;;;5087469;28;20301;-64
2023/02/11 01:43:21;;;;;;;;;;;5.60;96.00;;;;;;5082145;28;19965;-64
2023/02/11 01:45:47;;;;;;;;;;;5.60;96.00;;;;;;5084244;28;19927;-65
2023/02/11 01:48:16;;;;;;;;;;;5.60;96.00;;;;;;5084881;28;19912;-62
2023/02/11 01:50:43;;;;;;;;;;;5.60;96.00;;;;;;5086141;28;19916;-67
2023/02/11 01:58:40;;;;;;;;;;;5.60;95.80;;;;;;5084382;28;19931;-65
2023/02/11 02:01:06;;;;;;;;;;;5.60;95.90;;;;;;5087580;28;19912;-63
2023/02/11 02:03:32;;;;;;;;;;;5.70;95.80;;;;;;5093625;28;19916;-65
2023/02/11 02:06:05;;;;;;;;;;;5.70;95.80;;;;;;5095245;28;19916;-65
2023/02/11 02:08:37;;;;;;;;;;;5.70;95.70;;;;;;5095068;28;19919;-66
2023/02/11 02:11:03;;;;;;;;;;;5.70;95.70;;;;;;5093754;28;20278;-64
2023/02/11 02:13:31;;;;;;;;;;;5.80;95.60;;;;;;5085752;28;20023;-65
2023/02/11 02:15:58;;;;;;;;;;;5.70;95.40;;;;;;5084632;28;19999;-65
2023/02/11 02:18:30;;;;;;;;;;;5.80;95.50;;;;;;5083367;28;20335;-65
2023/02/11 02:21:01;;;;;;;;;;;5.80;95.40;;;;;;5082621;28;19916;-64
2023/02/11 02:23:27;;;;;;;;;;;5.80;95.40;;;;;;5082196;28;19987;-64
2023/02/11 02:26:19;;;;;;;;;;;5.80;95.50;;;;;;5084370;28;19998;-65
2023/02/11 02:28:44;;;;;;;;;;;5.80;95.60;;;;;;5077948;28;20155;-63
2023/02/11 02:31:29;;;;;;;;;;;5.80;95.70;;;;;;5078931;28;20007;-67
2023/02/11 02:34:00;;;;;;;;;;;5.80;95.60;;;;;;5084276;28;19916;-65
2023/02/11 02:36:28;;;;;;;;;;;5.70;95.40;;;;;;5084292;28;19916;-65
2023/02/11 02:39:06;;;;;;;;;;;5.80;95.50;;;;;;5085093;28;20003;-65
2023/02/11 02:41:33;;;;;;;;;;;5.80;95.50;;;;;;5085442;28;20046;-63
2023/02/11 02:43:59;;;;;;;;;;;5.70;95.30;;;;;;5084548;28;19998;-65
2023/02/11 02:46:29;;;;;;;;;;;5.70;95.40;;;;;;5082585;28;20026;-66
2023/02/11 02:48:54;;;;;;;;;;;5.60;95.30;;;;;;5082091;28;19923;-65
2023/02/11 02:51:26;;;;;;;;;;;5.60;95.40;;;;;;5081877;28;19913;-66
2023/02/11 02:53:57;;;;;;;;;;;5.60;95.40;;;;;;5083633;28;19912;-68
2023/02/11 02:56:45;;;;;;;;;;;5.60;95.30;;;;;;5080156;28;20293;-66
2023/02/11 02:59:17;;;;;;;;;;;5.70;95.30;;;;;;5067528;28;20018;-68
2023/02/11 03:02:02;;;;;;;;;;;5.70;95.20;;;;;;5082071;28;19937;-68
2023/02/11 03:04:34;;;;;;;;;;;5.70;95.20;;;;;;5084344;28;19916;-65
2023/02/11 03:07:15;;;;;;;;;;;5.60;95.30;;;;;;5084980;28;19965;-67
2023/02/11 03:09:50;;;;;;;;;;;5.70;95.80;;;;;;5080031;28;19912;-65
2023/02/11 03:12:16;;;;;;;;;;;5.70;95.50;;;;;;5082579;28;19995;-66
2023/02/11 03:14:43;;;;;;;;;;;5.70;95.50;;;;;;5081931;28;20010;-64
2023/02/11 03:17:09;;;;;;;;;;;5.70;95.70;;;;;;5083970;28;20003;-64
2023/02/11 03:19:41;;;;;;;;;;;5.70;95.60;;;;;;5080778;28;19920;-66
2023/02/11 03:22:10;;;;;;;;;;;5.70;95.50;;;;;;5091702;28;19941;-64
2023/02/11 03:24:38;;;;;;;;;;;5.60;95.60;;;;;;5079391;28;20449;-65
2023/02/11 03:27:14;;;;;;;;;;;5.60;95.70;;;;;;5078986;28;21873;-65
2023/02/11 03:29:48;;;;;;;;;;;5.60;96.00;;;;;;5078825;28;19912;-66
2023/02/11 03:32:21;;;;;;;;;;;5.60;95.80;;;;;;5081916;28;20017;-63
2023/02/11 03:34:55;;;;;;;;;;;5.50;95.90;;;;;;5082189;28;19965;-64
2023/02/11 03:37:24;;;;;;;;;;;5.50;96.00;;;;;;5083130;28;19974;-66
2023/02/11 03:39:53;;;;;;;;;;;5.40;96.00;;;;;;5082612;28;20281;-63
2023/02/11 03:42:20;;;;;;;;;;;5.40;96.00;;;;;;5082000;28;20289;-63
2023/02/11 03:44:52;;;;;;;;;;;5.40;96.10;;;;;;5082318;28;20041;-66
2023/02/11 03:47:19;;;;;;;;;;;5.40;95.90;;;;;;5080631;28;19919;-65
2023/02/11 03:49:47;;;;;;;;;;;5.30;96.10;;;;;;5080328;28;19916;-65
2023/02/11 03:52:13;;;;;;;;;;;5.30;96.20;;;;;;5082031;28;19928;-64
2023/02/11 03:54:41;;;;;;;;;;;5.30;96.10;;;;;;5081516;28;20639;-65
2023/02/11 03:57:07;;;;;;;;;;;5.30;96.20;;;;;;5081956;28;19920;-65
2023/02/11 03:59:48;;;;;;;;;;;5.30;96.30;;;;;;5077440;28;19983;-65
2023/02/11 04:02:13;;;;;;;;;;;5.30;96.20;;;;;;5078768;28;19912;-65
2023/02/11 04:04:39;;;;;;;;;;;5.20;96.30;;;;;;5084866;28;20567;-64
2023/02/11 04:07:04;;;;;;;;;;;5.20;96.50;;;;;;5083234;28;20026;-65
2023/02/11 04:09:30;;;;;;;;;;;5.20;96.40;;;;;;5082160;28;19921;-66
2023/02/11 04:11:56;;;;;;;;;;;5.20;96.50;;;;;;5080766;28;19972;-65
2023/02/11 04:14:21;;;;;;;;;;;5.20;96.50;;;;;;5078104;28;19968;-63
2023/02/11 04:16:47;;;;;;;;;;;5.20;96.50;;;;;;5082774;28;19918;-65
2023/02/11 04:19:12;;;;;;;;;;;5.20;96.40;;;;;;5078794;28;19912;-64
2023/02/11 04:21:38;;;;;;;;;;;5.20;96.30;;;;;;5082739;28;20421;-65
2023/02/11 04:24:04;;;;;;;;;;;5.20;96.30;;;;;;5080179;28;19935;-65
2023/02/11 04:26:29;;;;;;;;;;;5.20;96.40;;;;;;5079735;28;19953;-63
2023/02/11 04:28:55;;;;;;;;;;;5.20;96.40;;;;;;5082139;28;19969;-64
2023/02/11 04:31:21;;;;;;;;;;;5.20;96.50;;;;;;5079610;28;19938;-64
2023/02/11 04:33:46;;;;;;;;;;;5.20;96.40;;;;;;5082552;28;20436;-65
2023/02/11 04:36:12;;;;;;;;;;;5.20;96.80;;;;;;5077948;28;20420;-66
2023/02/11 04:38:37;;;;;;;;;;;5.20;96.80;;;;;;5079685;28;20350;-64
2023/02/11 04:41:03;;;;;;;;;;;5.10;96.90;;;;;;5081538;28;19942;-64
2023/02/11 04:43:29;;;;;;;;;;;5.20;97.00;;;;;;5080477;28;20018;-66
2023/02/11 04:45:57;;;;;;;;;;;5.30;96.90;;;;;;5080674;28;19920;-63
2023/02/11 04:48:23;;;;;;;;;;;5.20;97.10;;;;;;5065492;28;20305;-65
2023/02/11 04:50:49;;;;;;;;;;;5.10;97.20;;;;;;5079720;28;19912;-65
2023/02/11 04:53:14;;;;;;;;;;;5.10;97.40;;;;;;5082534;28;19966;-62
2023/02/11 04:55:40;;;;;;;;;;;5.10;97.40;;;;;;5079503;28;19916;-67
2023/02/11 04:58:06;;;;;;;;;;;5.00;97.70;;;;;;5081380;28;19965;-62
2023/02/11 05:00:31;;;;;;;;;;;4.90;97.80;;;;;;5076061;28;19999;-66
2023/02/11 05:02:57;;;;;;;;;;;4.80;97.20;;;;;;5078613;28;19947;-62
2023/02/11 05:05:22;;;;;;;;;;;4.80;96.90;;;;;;5081033;28;19932;-63
2023/02/11 05:07:48;;;;;;;;;;;4.80;97.60;;;;;;5087849;28;19920;-64
2023/02/11 05:10:14;;;;;;;;;;;4.70;98.00;;;;;;5080088;28;20289;-64
2023/02/11 05:12:39;;;;;;;;;;;4.60;97.80;;;;;;5080362;28;20344;-65
2023/02/11 05:15:05;;;;;;;;;;;4.60;97.90;;;;;;5081260;28;19973;-64
2023/02/11 05:17:31;;;;;;;;;;;4.50;97.80;;;;;;5078212;28;20283;-64
2023/02/11 05:19:56;;;;;;;;;;;4.70;98.10;;;;;;5079914;28;19920;-66
2023/02/11 05:22:22;;;;;;;;;;;4.90;98.30;;;;;;5082662;28;19924;-64
2023/02/11 05:24:49;;;;;;;;;;;4.90;98.30;;;;;;5078103;28;20062;-65
2023/02/11 05:27:14;;;;;;;;;;;4.90;97.60;;;;;;5080096;28;19923;-66
2023/02/11 05:29:40;;;;;;;;;;;4.90;97.10;;;;;;5081683;28;19916;-64
2023/02/11 05:32:07;;;;;;;;;;;4.90;96.80;;;;;;5076183;28;19989;-65
2023/02/11 05:34:34;;;;;;;;;;;4.90;96.60;;;;;;5080978;28;19927;-63
2023/02/11 05:36:59;;;;;;;;;;;4.90;97.00;;;;;;5080851;28;19938;-65
2023/02/11 05:39:25;;;;;;;;;;;4.70;97.40;;;;;;5079676;28;19916;-65
2023/02/11 05:41:53;;;;;;;;;;;4.60;98.00;;;;;;5082251;28;19920;-65
2023/02/11 05:44:18;;;;;;;;;;;4.60;98.30;;;;;;5081529;28;19916;-65
2023/02/11 05:46:44;;;;;;;;;;;4.50;98.50;;;;;;5078237;28;19913;-64
2023/02/11 05:49:10;;;;;;;;;;;4.40;98.80;;;;;;5080890;28;20022;-67
2023/02/11 05:51:35;;;;;;;;;;;4.20;98.30;;;;;;5082619;28;19920;-65
2023/02/11 05:54:01;;;;;;;;;;;4.20;98.50;;;;;;5083782;28;20053;-65
2023/02/11 05:56:26;;;;;;;;;;;4.20;98.20;;;;;;5084347;28;19912;-65
2023/02/11 05:58:52;;;;;;;;;;;4.30;98.10;;;;;;5086347;28;20282;-65
2023/02/11 06:01:18;;;;;;;;;;;4.30;97.70;;;;;;5080555;28;19912;-65
2023/02/11 06:03:43;;;;;;;;;;;4.40;97.60;;;;;;5085194;28;19920;-66
2023/02/11 06:06:10;;;;;;;;;;;4.50;97.20;;;;;;5087759;28;19916;-66
2023/02/11 06:08:36;;;;;;;;;;;4.60;97.10;;;;;;5083404;28;20011;-66
2023/02/11 06:11:01;;;;;;;;;;;4.70;96.80;;;;;;5081982;28;20051;-66
2023/02/11 06:13:27;;;;;;;;;;;4.80;96.90;;;;;;5065000;28;19919;-65
2023/02/11 06:16:00;;;;;;;;;;;4.80;97.20;;;;;;5084355;28;20005;-65
2023/02/11 06:18:25;;;;;;;;;;;4.70;97.30;;;;;;5083685;28;19916;-66
2023/02/11 06:20:51;;;;;;;;;;;4.70;97.40;;;;;;5084512;28;19958;-66
2023/02/11 06:23:17;;;;;;;;;;;4.70;97.30;;;;;;5083129;28;19916;-63
2023/02/11 06:25:42;;;;;;;;;;;4.70;97.50;;;;;;5083068;28;20023;-63
2023/02/11 06:28:09;;;;;;;;;;;4.70;97.30;;;;;;5082139;28;19920;-64
2023/02/11 06:30:36;;;;;;;;;;;4.70;97.30;;;;;;5080730;28;19955;-65
2023/02/11 06:33:01;;;;;;;;;;;4.70;97.20;;;;;;5082124;28;21761;-65
2023/02/11 06:35:27;;;;;;;;;;;4.80;97.10;;;;;;5080364;28;20006;-65
2023/02/11 06:37:53;;;;;;;;;;;4.90;97.10;;;;;;5082481;28;19916;-64
2023/02/11 06:40:19;;;;;;;;;;;4.90;97.10;;;;;;5081859;28;19913;-65
2023/02/11 06:42:45;;;;;;;;;;;4.90;97.70;;;;;;5083802;28;19919;-65
2023/02/11 06:45:11;;;;;;;;;;;4.80;97.80;;;;;;5081091;28;19936;-65
2023/02/11 06:47:38;;;;;;;;;;;4.90;97.60;;;;;;5082661;28;19916;-65
2023/02/11 06:50:04;;;;;;;;;;;4.90;97.80;;;;;;5079421;28;19923;-63
2023/02/11 06:52:30;;;;;;;;;;;4.90;98.10;;;;;;5083064;28;19990;-64
2023/02/11 06:54:55;;;;;;;;;;;5.00;98.30;;;;;;5084725;28;20353;-64
2023/02/11 06:57:21;;;;;;;;;;;5.00;98.40;;;;;;5081745;28;19912;-65
2023/02/11 06:59:47;;;;;;;;;;;4.90;98.30;;;;;;5082871;28;20621;-66
2023/02/11 07:02:12;;;;;;;;;;;4.90;97.80;;;;;;5077606;28;19919;-66
2023/02/11 07:04:38;;;;;;;;;;;4.90;98.30;;;;;;5085098;28;20354;-64
2023/02/11 07:07:04;;;;;;;;;;;5.10;98.90;;;;;;5083981;28;20365;-64
2023/02/11 07:09:29;;;;;;;;;;;5.00;99.10;;;;;;5083111;28;20296;-65
2023/02/11 07:11:55;;;;;;;;;;;5.00;99.30;;;;;;5064718;28;19920;-64
2023/02/11 07:14:21;;;;;;;;;;;4.90;99.60;;;;;;5079987;28;19908;-64
2023/02/11 07:16:46;;;;;;;;;;;4.90;98.90;;;;;;5081386;28;19912;-63
2023/02/11 07:19:12;;;;;;;;;;;5.00;97.80;;;;;;5080865;28;20445;-65
2023/02/11 07:21:38;;;;;;;;;;;5.10;97.50;;;;;;5082408;28;19958;-64
2023/02/11 07:24:07;;;;;;;;;;;5.20;97.50;;;;;;5078772;28;19927;-63
2023/02/11 07:26:33;;;;;;;;;;;5.30;97.30;;;;;;5083624;28;20367;-66
2023/02/11 07:28:59;;;;;;;;;;;5.40;97.20;;;;;;5081575;28;19919;-67
2023/02/11 07:31:26;;;;;;;;;;;5.50;96.90;;;;;;5081571;28;20003;-64
2023/02/11 07:33:52;;;;;;;;;;;5.70;97.00;;;;;;5083909;28;20535;-64
2023/02/11 07:36:18;;;;;;;;;;;5.80;96.90;;;;;;5090988;28;20421;-67
2023/02/11 07:38:44;;;;;;;;;;;5.80;96.80;;;;;;5092285;28;19912;-64
2023/02/11 07:41:11;;;;;;;;;;;5.90;96.90;;;;;;5080447;28;19912;-63
2023/02/11 07:43:37;;;;;;;;;;;6.00;96.90;;;;;;5086826;28;19912;-66
2023/02/11 07:46:03;;;;;;;;;;;6.00;97.20;;;;;;5089386;28;20670;-67
2023/02/11 07:48:29;;;;;;;;;;;6.00;96.80;;;;;;5085468;28;20384;-67
2023/02/11 07:50:55;;;;;;;;;;;6.10;97.00;;;;;;5087094;28;19923;-69
2023/02/11 07:53:21;;;;;;;;;;;6.40;99.90;;;;;;5089944;28;19908;-67
2023/02/11 07:55:47;;;;;;;;;;;6.70;99.00;;;;;;5091845;28;20366;-67
2023/02/11 07:58:15;;;;;;;;;;;7.00;99.80;;;;;;5080100;28;19921;-67
2023/02/11 08:00:41;;;;;;;;;;;7.00;97.80;;;;;;5086616;28;19913;-68
2023/02/11 08:03:07;;;;;;;;;;;6.90;96.30;;;;;;5083483;28;19912;-69
2023/02/11 08:05:32;;;;;;;;;;;7.00;97.70;;;;;;5093676;28;19947;-68
2023/02/11 08:07:58;;;;;;;;;;;7.10;97.10;;;;;;5086382;28;20385;-69
2023/02/11 08:10:23;;;;;;;;;;;7.10;97.20;;;;;;5090333;28;19942;-66
2023/02/11 08:12:49;;;;;;;;;;;7.30;99.90;;;;;;5091402;28;19996;-68
2023/02/11 08:15:15;;;;;;;;;;;7.60;99.90;;;;;;5085955;28;20007;-68
2023/02/11 08:17:40;;;;;;;;;;;7.70;98.30;;;;;;5084210;28;19967;-68
2023/02/11 08:20:06;;;;;;;;;;;7.90;99.50;;;;;;5085619;28;19957;-69
2023/02/11 08:22:33;;;;;;;;;;;8.00;99.80;;;;;;5083813;28;20539;-65
2023/02/11 08:24:58;;;;;;;;;;;8.20;98.90;;;;;;5090742;28;19916;-63
2023/02/11 08:27:25;;;;;;;;;;;8.00;97.20;;;;;;5080309;28;19976;-65
2023/02/11 08:29:51;;;;;;;;;;;7.90;97.20;;;;;;5084989;28;19920;-64
2023/02/11 08:32:17;;;;;;;;;;;7.70;96.10;;;;;;5084664;28;19912;-63
2023/02/11 08:34:42;;;;;;;;;;;7.60;95.00;;;;;;5089266;28;19912;-63
2023/02/11 08:37:08;;;;;;;;;;;7.60;94.80;;;;;;5080196;28;19920;-62
2023/02/11 08:39:34;;;;;;;;;;;7.70;95.40;;;;;;5098251;28;19912;-68
2023/02/11 08:41:59;;;;;;;;;;;8.00;97.20;;;;;;5093799;28;19912;-68
2023/02/11 08:44:25;;;;;;;;;;;8.50;99.90;;;;;;5101668;28;19923;-68
2023/02/11 08:46:51;;;;;;;;;;;8.80;96.30;;;;;;5092956;28;20362;-68
2023/02/11 08:49:17;;;;;;;;;;;8.90;94.30;;;;;;5096092;28;20385;-68
2023/02/11 08:51:43;;;;;;;;;;;8.90;93.90;;;;;;5095926;28;19999;-68
2023/02/11 08:54:08;;;;;;;;;;;8.80;94.10;;;;;;5094495;28;20300;-67
2023/02/11 08:56:35;;;;;;;;;;;8.70;94.30;;;;;;5093380;28;19909;-69
2023/02/11 08:59:01;;;;;;;;;;;8.50;94.40;;;;;;5091156;28;19912;-68
2023/02/11 09:01:28;;;;;;;;;;;8.40;94.30;;;;;;5088340;28;20021;-68
2023/02/11 09:03:54;;;;;;;;;;;8.50;94.30;;;;;;5088790;28;19920;-69
2023/02/11 09:06:21;;;;;;;;;;;8.40;94.30;;;;;;5088645;28;19924;-68
2023/02/11 09:08:48;;;;;;;;;;;8.40;94.80;;;;;;5088303;28;20351;-68
2023/02/11 09:11:13;;;;;;;;;;;8.40;94.60;;;;;;5087797;28;19912;-68
2023/02/11 09:13:40;;;;;;;;;;;8.40;94.90;;;;;;5088383;28;20408;-67
2023/02/11 09:16:06;;;;;;;;;;;8.40;94.90;;;;;;5092841;28;19912;-67
2023/02/11 09:18:31;;;;;;;;;;;8.50;94.40;;;;;;5086380;28;19956;-67
2023/02/11 09:21:06;;;;;;;;;;;8.50;94.40;;;;;;5090871;28;19927;-67
2023/02/11 09:23:33;;;;;;;;;;;8.60;94.80;;;;;;5091429;28;19935;-67
2023/02/11 09:26:00;;;;;;;;;;;8.60;95.40;;;;;;5090993;28;19923;-66
2023/02/11 09:28:25;;;;;;;;;;;8.50;95.50;;;;;;5056230;28;20309;-67
2023/02/11 09:30:51;;;;;;;;;;;8.50;96.50;;;;;;5090231;28;19912;-67
2023/02/11 09:33:16;;;;;;;;;;;8.60;96.90;;;;;;5090462;28;19913;-68
2023/02/11 09:35:42;;;;;;;;;;;8.50;97.60;;;;;;5093860;28;19908;-68
2023/02/11 09:38:08;;;;;;;;;;;8.50;97.90;;;;;;5093425;28;19963;-68
2023/02/11 09:40:33;;;;;;;;;;;8.50;98.10;;;;;;5092181;28;19923;-67
2023/02/11 09:43:02;;;;;;;;;;;8.50;98.00;;;;;;5089807;28;20015;-67
2023/02/11 09:45:29;;;;;;;;;;;8.60;98.60;;;;;;5092541;28;19916;-67
2023/02/11 09:47:56;;;;;;;;;;;8.70;99.90;;;;;;5096324;28;19908;-67
2023/02/11 09:50:28;;;;;;;;;;;8.80;99.90;;;;;;5094997;28;19961;-67
2023/02/11 09:52:53;;;;;;;;;;;8.80;99.90;;;;;;5094517;28;19912;-67
2023/02/11 09:55:21;;;;;;;;;;;8.70;99.90;;;;;;5092645;28;19912;-68
2023/02/11 09:57:47;;;;;;;;;;;8.70;99.90;;;;;;5094988;28;19912;-67
2023/02/11 10:00:15;;;;;;;;;;;8.90;99.90;;;;;;5095615;28;20021;-67
2023/02/11 10:02:53;;;;;;;;;;;8.90;99.90;;;;;;5093406;28;19919;-68
2023/02/11 10:05:24;;;;;;;;;;;8.80;99.90;;;;;;5093347;28;19922;-67
2023/02/11 10:08:04;;;;;;;;;;;8.70;99.90;;;;;;5092935;28;19919;-67
2023/02/11 10:10:43;;;;;;;;;;;8.70;99.90;;;;;;5090478;28;19919;-66
2023/02/11 10:13:08;;;;;;;;;;;8.70;99.90;;;;;;5094241;28;20306;-68
2023/02/11 10:15:42;;;;;;;;;;;8.70;99.90;;;;;;5076990;28;19915;-68
2023/02/11 10:18:27;;;;;;;;;;;8.70;99.90;;;;;;5076103;28;19931;-67
2023/02/11 10:20:58;;;;;;;;;;;8.60;99.90;;;;;;5086718;28;19912;-67
2023/02/11 10:23:25;;;;;;;;;;;8.70;99.90;;;;;;5095278;28;20332;-67
2023/02/11 10:25:53;;;;;;;;;;;8.70;99.90;;;;;;5092484;28;20369;-68
2023/02/11 10:28:20;;;;;;;;;;;8.70;99.90;;;;;;5078296;28;19912;-68
2023/02/11 10:30:58;;;;;;;;;;;8.80;99.90;;;;;;5094942;28;19912;-67
2023/02/11 10:33:31;;;;;;;;;;;8.70;99.90;;;;;;5089140;28;19935;-67
2023/02/11 10:35:57;;;;;;;;;;;8.70;99.90;;;;;;5094770;28;19954;-67
2023/02/11 10:38:23;;;;;;;;;;;8.70;99.90;;;;;;5094149;28;19931;-66
2023/02/11 10:40:48;;;;;;;;;;;8.60;99.90;;;;;;5093447;28;19912;-67
2023/02/11 10:43:15;;;;;;;;;;;8.60;99.90;;;;;;5093931;28;19908;-66
2023/02/11 10:45:42;;;;;;;;;;;8.60;99.90;;;;;;5091130;28;20069;-66
2023/02/11 10:48:26;;;;;;;;;;;8.60;99.90;;;;;;5089713;28;19959;-67
2023/02/11 10:51:05;;;;;;;;;;;8.60;99.90;;;;;;5091228;28;20266;-67
2023/02/11 10:53:32;;;;;;;;;;;8.60;99.90;;;;;;5094585;28;19915;-65
2023/02/11 10:55:58;;;;;;;;;;;8.70;99.90;;;;;;5092148;28;20389;-67
2023/02/11 10:58:26;;;;;;;;;;;8.70;99.90;;;;;;5093918;28;19970;-67
2023/02/11 11:00:53;;;;;;;;;;;8.80;99.90;;;;;;5088940;28;20054;-66
2023/02/11 11:03:24;;;;;;;;;;;9.00;99.90;;;;;;5086056;28;20366;-68
2023/02/11 11:05:55;;;;;;;;;;;8.90;99.90;;;;;;5088925;28;19916;-67
2023/02/11 11:08:20;;;;;;;;;;;9.00;99.90;;;;;;5071922;28;20293;-65
2023/02/11 11:10:48;;;;;;;;;;;9.00;99.90;;;;;;5087926;28;19920;-67
2023/02/11 11:13:26;;;;;;;;;;;9.00;99.90;;;;;;5098567;28;19912;-66
2023/02/11 11:16:07;;;;;;;;;;;9.10;99.90;;;;;;5093000;28;19950;-65
2023/02/11 11:18:32;;;;;;;;;;;9.10;99.90;;;;;;5096947;28;19912;-67
2023/02/11 11:21:04;;;;;;;;;;;9.10;99.90;;;;;;5096525;28;19912;-66
2023/02/11 11:23:30;;;;;;;;;;;9.00;99.90;;;;;;5096041;28;20374;-66
2023/02/11 11:26:01;;;;;;;;;;;9.00;99.90;;;;;;5096173;28;19920;-67
2023/02/11 11:28:27;;;;;;;;;;;8.90;99.90;;;;;;5093251;28;20015;-67
2023/02/11 11:30:54;;;;;;;;;;;9.00;99.90;;;;;;5097199;28;20369;-67
2023/02/11 11:33:21;;;;;;;;;;;9.00;99.90;;;;;;5093996;28;19908;-67
2023/02/11 11:35:58;;;;;;;;;;;9.00;99.90;;;;;;5098420;28;19908;-67
2023/02/11 11:38:23;;;;;;;;;;;9.00;99.90;;;;;;5094839;28;19908;-67
2023/02/11 11:41:09;;;;;;;;;;;9.00;99.90;;;;;;5087713;28;20065;-68
2023/02/11 11:43:36;;;;;;;;;;;9.00;99.90;;;;;;5087094;28;20010;-67
2023/02/11 11:46:05;;;;;;;;;;;9.00;99.90;;;;;;5088602;28;19976;-67
2023/02/11 11:48:33;;;;;;;;;;;9.00;99.90;;;;;;5080976;28;20221;-66
2023/02/11 11:51:01;;;;;;;;;;;9.00;99.90;;;;;;5087874;28;19992;-68
2023/02/11 11:53:30;;;;;;;;;;;8.90;99.90;;;;;;5089270;28;20388;-67
2023/02/11 11:56:00;;;;;;;;;;;9.00;99.90;;;;;;5069243;28;19923;-65
2023/02/11 11:58:27;;;;;;;;;;;9.00;99.90;;;;;;5089802;28;19916;-67
2023/02/11 12:00:53;;;;;;;;;;;9.10;99.90;;;;;;5089921;28;19982;-67
2023/02/11 12:03:18;;;;;;;;;;;9.00;99.90;;;;;;5087940;28;19912;-67
2023/02/11 12:05:49;;;;;;;;;;;9.00;99.90;;;;;;5083699;28;19984;-67
2023/02/11 12:08:21;;;;;;;;;;;8.90;99.90;;;;;;5088795;28;19951;-67
2023/02/11 12:10:50;;;;;;;;;;;8.90;99.90;;;;;;5088831;28;19912;-67
2023/02/11 12:13:25;;;;;;;;;;;8.80;99.90;;;;;;5079057;28;19920;-68
2023/02/11 12:15:50;;;;;;;;;;;8.80;99.90;;;;;;5080805;28;19912;-68
2023/02/11 12:18:19;;;;;;;;;;;8.90;99.90;;;;;;5093149;28;20007;-67
2023/02/11 12:20:47;;;;;;;;;;;8.90;99.90;;;;;;5094099;28;20343;-62
2023/02/11 12:23:18;;;;;;;;;;;8.80;99.90;;;;;;5088962;28;20255;-65
2023/02/11 12:25:44;;;;;;;;;;;8.80;99.90;;;;;;5086610;28;19920;-65
2023/02/11 12:28:20;;;;;;;;;;;8.90;99.90;;;;;;5093182;28;20542;-66
2023/02/11 12:30:49;;;;;;;;;;;8.80;99.90;;;;;;5091600;28;20267;-67
2023/02/11 12:33:33;;;;;;;;;;;8.70;99.90;;;;;;5092167;28;19955;-66
2023/02/11 12:36:04;;;;;;;;;;;8.70;99.90;;;;;;5093027;28;20286;-66
2023/02/11 12:38:40;;;;;;;;;;;8.80;99.90;;;;;;5096807;28;19924;-66
2023/02/11 12:41:14;;;;;;;;;;;8.80;99.90;;;;;;5093804;28;20374;-66
2023/02/11 12:43:41;;;;;;;;;;;8.80;99.90;;;;;;5083660;28;20003;-65
2023/02/11 12:46:19;;;;;;;;;;;8.80;99.90;;;;;;5086905;28;19951;-66
2023/02/11 12:49:04;;;;;;;;;;;8.80;99.90;;;;;;5088185;28;20319;-64
2023/02/11 12:51:55;;;;;;;;;;;8.90;99.90;;;;;;5086974;28;19959;-65
2023/02/11 12:54:40;;;;;;;;;;;8.90;99.90;;;;;;5039864;28;20151;-65
2023/02/11 12:57:11;;;;;;;;;;;8.90;99.90;;;;;;5083355;28;19916;-67
2023/02/11 12:59:37;;;;;;;;;;;9.00;99.90;;;;;;5083512;28;19966;-68
2023/02/11 13:02:04;;;;;;;;;;;9.00;99.90;;;;;;5089260;28;19912;-68
2023/02/11 13:04:39;;;;;;;;;;;9.00;99.90;;;;;;5087128;28;20420;-68
2023/02/11 13:07:09;;;;;;;;;;;9.10;99.90;;;;;;5088625;28;19973;-67
2023/02/11 13:09:40;;;;;;;;;;;9.00;99.90;;;;;;5080376;28;20384;-66
2023/02/11 13:13:15;;;;;;;;;;;9.20;99.30;;;;;;5087513;28;19923;-67
2023/02/11 13:14:54;;;;;;;;;;;9.20;97.60;;;;;;5081317;28;19920;-67
2023/02/11 13:17:26;;;;;;;;;;;9.20;98.30;;;;;;5089379;28;19912;-67
2023/02/11 13:19:57;;;;;;;;;;;9.30;99.40;;;;;;5079713;28;19912;-65
2023/02/11 13:22:25;;;;;;;;;;;9.30;99.90;;;;;;5063171;28;19969;-69
2023/02/11 13:25:09;;;;;;;;;;;9.20;99.90;;;;;;5090371;28;19955;-66
2023/02/11 13:27:59;;;;;;;;;;;9.20;99.90;;;;;;5088310;28;19912;-67
2023/02/11 13:30:29;;;;;;;;;;;9.20;99.90;;;;;;5096090;28;19919;-67
2023/02/11 13:32:54;;;;;;;;;;;9.20;99.90;;;;;;5092543;28;20393;-68
2023/02/11 13:35:32;;;;;;;;;;;9.30;99.90;;;;;;5093407;28;19987;-68
2023/02/11 13:37:59;;;;;;;;;;;9.30;99.90;;;;;;5094550;28;19920;-68
2023/02/11 13:40:26;;;;;;;;;;;9.30;99.90;;;;;;5091401;28;19923;-68
2023/02/11 13:42:57;;;;;;;;;;;9.20;99.90;;;;;;5095678;28;20274;-68
2023/02/11 13:45:23;;;;;;;;;;;9.20;99.90;;;;;;5092066;28;19915;-66
2023/02/11 13:47:54;;;;;;;;;;;9.20;99.90;;;;;;5083579;28;19919;-66
2023/02/11 13:50:22;;;;;;;;;;;9.20;99.90;;;;;;5088870;28;19959;-64
2023/02/11 13:52:55;;;;;;;;;;;9.20;99.90;;;;;;5083389;28;19916;-66
2023/02/11 13:55:22;;;;;;;;;;;9.20;99.90;;;;;;5085690;28;20006;-66
2023/02/11 13:58:05;;;;;;;;;;;9.30;99.90;;;;;;5094369;28;19954;-67
2023/02/11 14:00:34;;;;;;;;;;;9.40;99.90;;;;;;5091339;28;20931;-66
2023/02/11 14:09:21;;;;;;;;;;;9.50;99.90;;;;;;5090329;28;19973;-66
2023/02/11 14:11:46;;;;;;;;;;;9.60;99.90;;;;;;5061483;28;19938;-67
2023/02/11 14:14:23;;;;;;;;;;;9.60;99.90;;;;;;5096573;28;19908;-66
2023/02/11 14:17:00;;;;;;;;;;;9.50;99.90;;;;;;5090012;28;19908;-65
2023/02/11 14:19:39;;;;;;;;;;;9.60;99.90;;;;;;5093775;28;19962;-65
2023/02/11 14:22:08;;;;;;;;;;;9.60;99.90;;;;;;5093928;28;19916;-67
2023/02/11 14:24:33;;;;;;;;;;;9.60;99.90;;;;;;5095169;28;20065;-64
2023/02/11 14:26:59;;;;;;;;;;;9.60;99.90;;;;;;5091141;28;20393;-64
2023/02/11 14:29:25;;;;;;;;;;;9.60;99.90;;;;;;5092127;28;19912;-66
2023/02/11 14:32:02;;;;;;;;;;;9.50;99.90;;;;;;5092633;28;19913;-66
2023/02/11 14:34:34;;;;;;;;;;;9.50;99.90;;;;;;5074763;28;20384;-65
2023/02/11 14:37:04;;;;;;;;;;;9.50;99.90;;;;;;5076723;28;19908;-64
2023/02/11 14:39:46;;;;;;;;;;;9.50;99.90;;;;;;5092384;28;19981;-64
2023/02/11 14:42:19;;;;;;;;;;;9.40;99.90;;;;;;5089285;28;20356;-64
2023/02/11 14:44:47;;;;;;;;;;;9.40;99.90;;;;;;5089649;28;19927;-65
2023/02/11 14:47:34;;;;;;;;;;;9.40;99.90;;;;;;5077018;28;20011;-65
2023/02/11 14:50:00;;;;;;;;;;;9.40;99.90;;;;;;5083149;28;19958;-67
2023/02/11 14:52:29;;;;;;;;;;;9.40;99.90;;;;;;5092674;28;19916;-64